Time;durP1;ratioP1;P1;durP2;ratioP2;P2;SDS_P1;SDS_P2;PMS_P1;PMS_P2;Temp;Humidity;BMP_temperature;BMP_pressure;BME280_temperature;BME280_humidity;BME280_pressure;Samples;Min_cycle;Max_cycle;Signal;HPM_P1;HPM_P2
2023/01/13 00:00:43;;;;;;;4.63;1.77;;;8.00;99.90;;;;;;456813;260;28176;-79
2023/01/13 00:02:45;;;;;;;2.77;1.77;;;8.00;99.90;;;;;;456838;259;28175;-79
2023/01/13 00:04:46;;;;;;;6.47;2.07;;;8.00;99.90;;;;;;456831;259;27945;-79
2023/01/13 00:06:48;;;;;;;4.60;2.20;;;8.00;99.90;;;;;;456834;259;27841;-80
2023/01/13 00:08:50;;;;;;;3.97;1.73;;;8.00;99.90;;;;;;456778;260;27852;-79
2023/01/13 00:10:51;;;;;;;4.33;2.60;;;8.00;99.90;;;;;;456867;259;28325;-81
2023/01/13 00:12:52;;;;;;;4.40;1.70;;;8.00;99.90;;;;;;456859;259;28153;-79
2023/01/13 00:14:53;;;;;;;3.90;2.00;;;8.00;99.90;;;;;;456867;259;28203;-80
2023/01/13 00:16:54;;;;;;;10.00;2.47;;;8.00;99.90;;;;;;456861;259;28042;-79
2023/01/13 00:18:56;;;;;;;8.63;1.93;;;7.90;99.90;;;;;;456861;259;28174;-79
2023/01/13 00:20:57;;;;;;;4.47;2.37;;;7.90;99.90;;;;;;456889;259;28130;-81
2023/01/13 00:22:59;;;;;;;10.40;2.20;;;7.90;99.90;;;;;;456859;259;28202;-78
2023/01/13 00:25:00;;;;;;;2.80;1.80;;;7.90;99.90;;;;;;456877;259;28144;-79
2023/01/13 00:27:03;;;;;;;5.40;2.13;;;7.90;99.90;;;;;;456818;259;28093;-79
2023/01/13 00:29:04;;;;;;;5.00;2.00;;;7.90;99.90;;;;;;456824;259;28108;-80
2023/01/13 00:31:05;;;;;;;4.37;2.67;;;7.90;99.90;;;;;;456817;259;28074;-82
2023/01/13 00:33:07;;;;;;;5.93;1.90;;;7.90;99.90;;;;;;456799;259;27879;-79
2023/01/13 00:35:08;;;;;;;3.67;1.80;;;7.90;99.90;;;;;;456866;259;28544;-80
2023/01/13 00:37:11;;;;;;;8.50;2.17;;;8.00;99.90;;;;;;456791;259;28689;-79
2023/01/13 00:39:10;;;;;;;3.80;2.03;;;8.00;99.90;;;;;;456829;259;28712;-79
2023/01/13 00:41:11;;;;;;;5.80;1.90;;;8.00;99.90;;;;;;456831;259;28647;-78
2023/01/13 00:43:22;;;;;;;1.63;1.50;;;8.00;99.90;;;;;;456858;259;28492;-79
2023/01/13 00:45:23;;;;;;;3.67;1.70;;;8.00;99.90;;;;;;456809;259;28264;-80
2023/01/13 00:47:24;;;;;;;3.13;1.57;;;8.00;99.90;;;;;;456826;260;28103;-81
2023/01/13 00:49:26;;;;;;;2.40;1.83;;;8.00;99.90;;;;;;456833;259;28122;-80
2023/01/13 00:51:27;;;;;;;4.33;2.27;;;8.00;99.90;;;;;;456827;259;27880;-79
2023/01/13 00:53:28;;;;;;;5.50;2.10;;;8.00;99.90;;;;;;456854;259;28549;-79
2023/01/13 00:55:29;;;;;;;2.30;1.60;;;7.90;99.90;;;;;;456842;259;28565;-79
2023/01/13 00:57:31;;;;;;;5.43;1.80;;;8.00;99.90;;;;;;456802;258;28809;-79
2023/01/13 00:59:32;;;;;;;4.17;1.53;;;7.90;99.90;;;;;;456848;259;30313;-79
2023/01/13 01:01:33;;;;;;;4.60;1.40;;;7.90;99.90;;;;;;456861;259;28374;-79
2023/01/13 01:03:34;;;;;;;4.60;2.00;;;7.90;99.90;;;;;;456847;260;28227;-79
2023/01/13 01:05:35;;;;;;;3.70;1.90;;;7.90;99.90;;;;;;456838;259;28057;-79
2023/01/13 01:07:37;;;;;;;8.33;1.80;;;7.90;99.90;;;;;;462760;255;27565;-79
2023/01/13 01:09:38;;;;;;;5.27;2.13;;;7.90;99.90;;;;;;465756;253;28022;-79
2023/01/13 01:11:39;;;;;;;3.30;1.67;;;7.90;99.90;;;;;;465857;253;28106;-79
2023/01/13 01:13:40;;;;;;;2.50;1.90;;;7.90;99.90;;;;;;465676;253;28983;-79
2023/01/13 01:15:42;;;;;;;2.33;1.43;;;7.90;99.90;;;;;;465853;255;27812;-80
2023/01/13 01:17:43;;;;;;;3.80;1.80;;;7.90;99.90;;;;;;465853;253;28033;-79
2023/01/13 01:19:44;;;;;;;7.13;2.20;;;7.90;99.90;;;;;;465947;253;27904;-80
2023/01/13 01:21:45;;;;;;;3.27;1.93;;;7.90;99.90;;;;;;465941;253;28031;-80
2023/01/13 01:23:47;;;;;;;6.43;1.67;;;7.90;99.90;;;;;;465949;253;27601;-79
2023/01/13 01:25:48;;;;;;;2.43;1.57;;;7.90;99.90;;;;;;465942;253;27789;-79
2023/01/13 01:27:49;;;;;;;3.30;1.73;;;7.90;99.90;;;;;;465913;253;27978;-80
2023/01/13 01:29:51;;;;;;;4.70;1.77;;;7.90;99.90;;;;;;465933;253;28547;-80
2023/01/13 01:31:52;;;;;;;2.80;1.63;;;7.90;99.90;;;;;;465935;255;28529;-79
2023/01/13 01:33:53;;;;;;;3.63;1.90;;;7.90;99.90;;;;;;465920;253;28328;-79
2023/01/13 01:35:54;;;;;;;5.00;1.67;;;7.90;99.90;;;;;;465941;253;28276;-79
2023/01/13 01:37:55;;;;;;;2.10;1.50;;;7.90;99.90;;;;;;465966;253;28433;-79
2023/01/13 01:39:57;;;;;;;8.13;2.00;;;7.90;99.90;;;;;;465935;249;28042;-81
2023/01/13 01:44:17;;;;;;;3.90;1.50;;;7.90;99.90;;;;;;465895;255;28070;-79
2023/01/13 01:46:20;;;;;;;3.17;1.70;;;7.90;99.90;;;;;;465927;253;27944;-79
2023/01/13 01:48:21;;;;;;;3.10;1.57;;;7.90;99.90;;;;;;465922;253;27551;-79
2023/01/13 01:50:22;;;;;;;1.83;1.53;;;7.90;99.90;;;;;;465961;253;27939;-79
2023/01/13 01:52:24;;;;;;;3.13;1.63;;;7.90;99.90;;;;;;465919;253;28469;-79
2023/01/13 01:54:25;;;;;;;2.23;1.67;;;7.90;99.90;;;;;;465908;253;28458;-80
2023/01/13 01:56:26;;;;;;;4.87;1.83;;;7.90;99.90;;;;;;465925;253;28512;-79
2023/01/13 01:58:27;;;;;;;3.63;2.00;;;7.90;99.90;;;;;;465916;253;28851;-79
2023/01/13 02:00:28;;;;;;;2.17;1.90;;;7.90;99.90;;;;;;465953;253;28386;-80
2023/01/13 02:02:30;;;;;;;2.57;1.37;;;7.90;99.90;;;;;;465962;253;27840;-80
2023/01/13 02:04:31;;;;;;;4.90;1.70;;;7.90;99.90;;;;;;465955;253;27685;-80
2023/01/13 02:06:32;;;;;;;2.63;1.40;;;7.90;99.90;;;;;;465940;253;28007;-79
2023/01/13 02:08:33;;;;;;;2.20;1.40;;;7.90;99.90;;;;;;465959;253;27773;-79
2023/01/13 02:10:35;;;;;;;2.20;1.70;;;7.90;99.90;;;;;;465963;253;27940;-78
2023/01/13 02:12:36;;;;;;;3.57;1.70;;;7.90;99.90;;;;;;465998;253;27860;-80
2023/01/13 02:14:37;;;;;;;1.60;1.50;;;7.90;99.90;;;;;;465922;253;27964;-79
2023/01/13 02:16:38;;;;;;;2.90;1.60;;;7.90;99.90;;;;;;465931;253;28004;-79
2023/01/13 02:18:40;;;;;;;2.00;1.50;;;7.90;99.90;;;;;;465942;253;27489;-79
2023/01/13 02:20:41;;;;;;;2.90;1.70;;;7.90;99.90;;;;;;465939;253;27670;-79
2023/01/13 02:22:42;;;;;;;2.00;1.40;;;7.90;99.90;;;;;;465958;253;28045;-80
2023/01/13 02:24:55;;;;;;;2.80;1.50;;;7.90;99.90;;;;;;465934;253;27936;-79
2023/01/13 02:26:57;;;;;;;3.90;1.60;;;7.90;99.90;;;;;;465924;253;28469;-80
2023/01/13 02:33:37;;;;;;;2.30;1.47;;;7.90;99.90;;;;;;465787;255;27973;-79
2023/01/13 02:35:38;;;;;;;2.20;1.20;;;7.90;99.90;;;;;;465937;253;27945;-81
2023/01/13 02:37:39;;;;;;;2.40;1.40;;;7.90;99.90;;;;;;465933;253;28447;-80
2023/01/13 02:39:41;;;;;;;1.60;1.50;;;7.90;99.90;;;;;;465959;253;28549;-79
2023/01/13 02:44:07;;;;;;;1.33;1.23;;;7.90;99.90;;;;;;465914;255;27972;-78
2023/01/13 02:46:09;;;;;;;2.20;1.30;;;7.90;99.90;;;;;;465918;253;28571;-79
2023/01/13 02:48:10;;;;;;;1.93;1.40;;;7.90;99.90;;;;;;465938;253;27600;-79
2023/01/13 02:50:11;;;;;;;9.03;1.60;;;7.90;99.90;;;;;;465911;253;27934;-79
2023/01/13 02:52:12;;;;;;;1.70;1.50;;;7.90;99.90;;;;;;465945;253;27847;-79
2023/01/13 02:54:14;;;;;;;8.30;2.13;;;7.90;99.90;;;;;;465963;253;27935;-79
2023/01/13 02:56:15;;;;;;;2.50;1.40;;;7.90;99.90;;;;;;465970;253;27855;-79
2023/01/13 02:58:16;;;;;;;2.00;1.50;;;7.90;99.90;;;;;;465905;253;28039;-79
2023/01/13 03:00:17;;;;;;;1.73;1.63;;;7.90;99.90;;;;;;465924;253;28092;-80
2023/01/13 03:02:19;;;;;;;1.67;1.57;;;7.90;99.90;;;;;;465941;253;28450;-80
2023/01/13 03:04:20;;;;;;;2.97;1.60;;;7.80;99.90;;;;;;465941;253;28111;-79
2023/01/13 03:06:21;;;;;;;4.30;1.77;;;7.80;99.90;;;;;;465915;253;27972;-78
2023/01/13 03:08:22;;;;;;;2.03;1.50;;;7.80;99.90;;;;;;465900;253;27811;-80
2023/01/13 03:10:24;;;;;;;2.60;1.70;;;7.90;99.90;;;;;;465915;253;28124;-79
2023/01/13 03:12:25;;;;;;;2.60;1.60;;;7.90;99.90;;;;;;465923;253;28185;-80
2023/01/13 03:14:26;;;;;;;3.43;2.30;;;7.90;99.90;;;;;;465931;253;28470;-79
2023/01/13 03:16:27;;;;;;;2.77;1.70;;;7.90;99.90;;;;;;465929;253;28523;-79
2023/01/13 03:18:29;;;;;;;2.20;1.40;;;7.80;99.90;;;;;;465923;253;28412;-79
2023/01/13 03:20:30;;;;;;;2.50;1.60;;;7.90;99.90;;;;;;465916;253;28891;-80
2023/01/13 03:22:31;;;;;;;2.83;2.00;;;7.90;99.90;;;;;;465928;253;28707;-80
2023/01/13 03:24:32;;;;;;;3.17;2.00;;;7.90;99.90;;;;;;465897;253;28465;-79
2023/01/13 03:26:34;;;;;;;2.33;1.90;;;7.90;99.90;;;;;;465913;253;27607;-79
2023/01/13 03:28:35;;;;;;;4.57;2.00;;;7.80;99.90;;;;;;465914;253;27815;-79
2023/01/13 03:30:36;;;;;;;3.20;1.90;;;7.80;99.90;;;;;;465914;253;28092;-79
2023/01/13 03:32:37;;;;;;;6.57;2.10;;;7.90;99.90;;;;;;465925;253;28146;-79
2023/01/13 03:34:39;;;;;;;2.53;2.00;;;7.90;99.90;;;;;;465956;253;27800;-79
2023/01/13 03:36:40;;;;;;;2.60;1.80;;;7.80;99.90;;;;;;465927;253;27973;-79
2023/01/13 03:38:41;;;;;;;4.20;1.90;;;7.90;99.90;;;;;;465912;253;28075;-80
2023/01/13 03:40:42;;;;;;;4.23;1.70;;;7.80;99.90;;;;;;465905;253;28500;-79
2023/01/13 03:44:20;;;;;;;2.10;1.90;;;7.90;99.90;;;;;;465926;253;28540;-79
2023/01/13 03:44:48;;;;;;;2.80;2.00;;;7.80;99.90;;;;;;464404;255;28117;-80
2023/01/13 03:46:49;;;;;;;3.93;1.97;;;7.80;99.90;;;;;;465978;253;27949;-80
2023/01/13 03:48:50;;;;;;;2.57;1.80;;;7.80;99.90;;;;;;465946;253;27985;-80
2023/01/13 03:50:52;;;;;;;4.23;2.60;;;7.90;99.90;;;;;;465950;253;28451;-79
2023/01/13 03:52:53;;;;;;;3.80;1.77;;;7.90;99.90;;;;;;465916;253;28551;-78
2023/01/13 03:54:55;;;;;;;1.70;1.53;;;7.90;99.90;;;;;;465943;253;28558;-80
2023/01/13 03:56:55;;;;;;;5.33;1.70;;;7.90;99.90;;;;;;465871;255;28029;-79
2023/01/13 03:58:57;;;;;;;2.93;1.93;;;7.90;99.90;;;;;;465901;253;28013;-79
2023/01/13 04:00:58;;;;;;;6.30;1.70;;;7.90;99.90;;;;;;465879;253;27874;-79
2023/01/13 04:02:59;;;;;;;1.70;1.60;;;7.90;99.90;;;;;;465870;255;27968;-79
2023/01/13 04:05:01;;;;;;;2.63;1.70;;;7.90;99.90;;;;;;465915;253;28061;-80
2023/01/13 04:07:02;;;;;;;4.70;2.10;;;7.90;99.90;;;;;;465857;255;27879;-80
2023/01/13 04:09:03;;;;;;;2.13;1.60;;;7.90;99.90;;;;;;465894;253;27982;-79
2023/01/13 04:11:04;;;;;;;5.30;1.57;;;7.90;99.90;;;;;;465900;253;28027;-79
2023/01/13 04:13:05;;;;;;;1.73;1.40;;;7.90;99.90;;;;;;465933;249;28074;-79
2023/01/13 04:15:07;;;;;;;1.40;1.30;;;7.90;99.90;;;;;;465940;253;27712;-79
2023/01/13 04:17:08;;;;;;;1.67;1.40;;;7.90;99.90;;;;;;465925;253;28024;-79
2023/01/13 04:19:09;;;;;;;1.40;1.30;;;8.00;99.90;;;;;;465943;253;27976;-79
2023/01/13 04:21:10;;;;;;;4.87;1.60;;;8.00;99.90;;;;;;465955;253;27821;-79
2023/01/13 04:23:12;;;;;;;1.90;1.37;;;8.00;99.90;;;;;;465933;253;28366;-79
2023/01/13 04:25:13;;;;;;;2.47;1.50;;;8.00;99.90;;;;;;465861;255;28476;-80
2023/01/13 04:27:14;;;;;;;5.20;1.70;;;8.00;99.90;;;;;;465982;253;28521;-79
2023/01/13 04:29:15;;;;;;;2.43;1.60;;;8.00;99.90;;;;;;465962;253;28499;-79
2023/01/13 04:31:17;;;;;;;2.30;1.80;;;8.00;99.90;;;;;;465925;253;28282;-79
2023/01/13 04:33:18;;;;;;;2.00;1.53;;;8.00;99.90;;;;;;465957;249;27835;-80
2023/01/13 04:35:19;;;;;;;3.73;1.30;;;8.00;99.90;;;;;;465981;253;27983;-80
2023/01/13 04:37:20;;;;;;;1.73;1.40;;;8.00;99.90;;;;;;465979;253;28062;-79
2023/01/13 04:39:22;;;;;;;5.50;1.73;;;8.00;99.90;;;;;;465969;253;27622;-79
2023/01/13 04:41:23;;;;;;;3.77;1.40;;;8.00;99.90;;;;;;465963;253;27894;-79
2023/01/13 04:43:24;;;;;;;3.50;1.40;;;8.00;99.90;;;;;;465944;253;27991;-78
2023/01/13 04:45:25;;;;;;;1.50;1.40;;;8.00;99.90;;;;;;465976;253;27615;-81
2023/01/13 04:47:27;;;;;;;2.33;1.40;;;8.00;99.90;;;;;;465980;253;27948;-79
2023/01/13 04:49:28;;;;;;;2.50;1.20;;;8.00;99.90;;;;;;465929;253;27988;-80
2023/01/13 04:51:29;;;;;;;5.03;1.60;;;8.00;99.90;;;;;;465930;253;27950;-79
2023/01/13 04:53:30;;;;;;;3.67;1.70;;;8.10;99.90;;;;;;465920;253;27968;-79
2023/01/13 04:55:32;;;;;;;3.33;1.57;;;8.10;99.90;;;;;;465917;255;27710;-79
2023/01/13 04:57:33;;;;;;;2.03;1.57;;;8.10;99.90;;;;;;465923;253;27935;-79
2023/01/13 04:59:34;;;;;;;2.43;1.10;;;8.10;99.90;;;;;;465922;253;28552;-79
2023/01/13 05:01:35;;;;;;;1.50;1.40;;;8.10;99.90;;;;;;464898;250;28292;-79
2023/01/13 05:03:37;;;;;;;2.40;1.60;;;8.10;99.90;;;;;;463443;256;28235;-79
2023/01/13 05:05:38;;;;;;;1.93;1.30;;;8.10;99.90;;;;;;463489;256;28531;-78
2023/01/13 05:07:39;;;;;;;2.00;1.80;;;8.10;99.90;;;;;;463458;256;28073;-77
2023/01/13 05:09:40;;;;;;;2.07;1.87;;;8.10;99.90;;;;;;463402;256;27952;-80
2023/01/13 05:18:40;;;;;;;3.30;2.00;;;8.10;99.90;;;;;;462060;250;27577;-78
2023/01/13 05:20:42;;;;;;;3.33;1.30;;;8.10;99.90;;;;;;460599;254;28208;-79
2023/01/13 05:25:21;;;;;;;1.60;1.50;;;8.10;99.90;;;;;;462022;250;28044;-79
2023/01/13 05:27:22;;;;;;;1.60;1.50;;;8.10;99.90;;;;;;471834;252;27904;-78
2023/01/13 05:29:23;;;;;;;3.93;2.10;;;8.10;99.90;;;;;;471840;252;27955;-79
2023/01/13 05:31:24;;;;;;;1.40;1.30;;;8.10;99.90;;;;;;471861;252;27878;-80
2023/01/13 05:33:26;;;;;;;1.40;1.30;;;8.10;99.90;;;;;;471829;252;27778;-79
2023/01/13 05:35:28;;;;;;;2.50;1.70;;;8.20;99.90;;;;;;471844;252;27964;-79
2023/01/13 05:37:28;;;;;;;2.30;1.93;;;8.20;99.90;;;;;;471805;252;27860;-80
2023/01/13 05:43:18;;;;;;;2.43;1.60;;;8.20;99.90;;;;;;471844;252;27856;-78
2023/01/13 05:43:50;;;;;;;2.03;1.60;;;8.20;99.90;;;;;;471763;252;28034;-79
2023/01/13 05:45:52;;;;;;;5.30;4.33;;;8.20;99.90;;;;;;471835;252;27819;-79
2023/01/13 05:47:53;;;;;;;3.60;3.30;;;8.10;99.90;;;;;;471871;252;28455;-79
2023/01/13 05:49:54;;;;;;;4.40;2.43;;;8.10;99.90;;;;;;471880;252;28374;-79
2023/01/13 05:51:56;;;;;;;8.00;7.17;;;8.10;99.90;;;;;;471805;247;28432;-79
2023/01/13 05:53:58;;;;;;;1.67;1.40;;;8.10;99.90;;;;;;471807;252;30312;-79
2023/01/13 05:55:58;;;;;;;1.60;1.50;;;8.10;99.90;;;;;;471816;252;28000;-79
2023/01/13 05:57:59;;;;;;;3.27;1.60;;;8.10;99.90;;;;;;471866;252;27934;-79
2023/01/13 06:00:00;;;;;;;1.80;1.57;;;8.10;99.90;;;;;;471848;247;27534;-79
2023/01/13 06:02:02;;;;;;;1.90;1.40;;;8.10;99.90;;;;;;471835;252;27686;-80
2023/01/13 06:04:03;;;;;;;2.80;1.40;;;8.10;99.90;;;;;;471835;252;27560;-78
2023/01/13 06:06:04;;;;;;;1.70;1.20;;;8.10;99.90;;;;;;471843;252;27934;-80
2023/01/13 06:08:05;;;;;;;2.93;1.30;;;8.00;99.90;;;;;;471756;252;27897;-79
2023/01/13 06:10:07;;;;;;;2.10;1.23;;;7.90;99.90;;;;;;471855;252;27792;-79
2023/01/13 06:12:08;;;;;;;2.87;1.20;;;7.80;99.90;;;;;;471815;252;28084;-79
2023/01/13 06:14:09;;;;;;;1.00;0.90;;;7.80;99.90;;;;;;471844;247;28020;-79
2023/01/13 06:16:10;;;;;;;1.10;1.00;;;7.80;99.90;;;;;;471810;252;27884;-77
2023/01/13 06:18:12;;;;;;;2.50;1.10;;;7.70;99.90;;;;;;471853;247;27921;-80
2023/01/13 06:20:13;;;;;;;0.90;0.90;;;7.70;99.90;;;;;;471827;252;27928;-80
2023/01/13 06:22:14;;;;;;;1.30;1.20;;;7.70;99.90;;;;;;471803;252;28004;-79
2023/01/13 06:24:15;;;;;;;2.40;1.10;;;7.70;99.90;;;;;;471767;252;27892;-82
2023/01/13 06:26:17;;;;;;;0.90;0.90;;;7.60;99.90;;;;;;471856;252;28593;-79
2023/01/13 06:28:18;;;;;;;1.00;0.93;;;7.60;99.90;;;;;;471866;252;28556;-78
2023/01/13 06:30:19;;;;;;;1.20;0.97;;;7.60;99.90;;;;;;471849;252;27828;-79
2023/01/13 06:32:20;;;;;;;4.17;0.90;;;7.50;99.90;;;;;;471841;252;27817;-79
2023/01/13 06:34:22;;;;;;;0.90;0.90;;;7.50;99.90;;;;;;471843;252;27836;-80
2023/01/13 06:36:23;;;;;;;1.10;1.00;;;7.50;99.90;;;;;;471886;252;27868;-79
2023/01/13 06:38:24;;;;;;;5.40;1.40;;;7.50;99.90;;;;;;471860;252;28848;-80
2023/01/13 06:40:25;;;;;;;1.30;1.00;;;7.40;99.90;;;;;;471858;252;27436;-79
2023/01/13 06:44:46;;;;;;;1.80;1.00;;;7.40;99.90;;;;;;471768;252;28088;-79
2023/01/13 06:46:47;;;;;;;1.03;0.93;;;7.40;99.90;;;;;;471835;247;29358;-80
2023/01/13 06:48:49;;;;;;;1.20;1.10;;;7.30;99.90;;;;;;471838;252;28824;-79
2023/01/13 06:50:50;;;;;;;1.70;1.17;;;7.30;99.90;;;;;;471858;252;27647;-79
2023/01/13 06:52:51;;;;;;;2.07;1.00;;;7.30;99.90;;;;;;471829;252;27520;-79
2023/01/13 06:54:52;;;;;;;1.50;0.90;;;7.30;99.90;;;;;;471869;252;28143;-80
2023/01/13 06:56:54;;;;;;;1.10;1.00;;;7.30;99.90;;;;;;471752;252;27539;-80
2023/01/13 06:58:55;;;;;;;1.00;1.00;;;7.30;99.90;;;;;;471817;252;28234;-79
2023/01/13 07:00:56;;;;;;;3.27;1.20;;;7.30;99.90;;;;;;471849;252;27583;-79
2023/01/13 07:02:57;;;;;;;1.13;1.00;;;7.20;99.90;;;;;;471746;252;28787;-80
2023/01/13 07:04:59;;;;;;;1.97;1.70;;;7.20;99.90;;;;;;471799;252;27576;-80
2023/01/13 07:07:00;;;;;;;1.93;1.23;;;7.10;99.90;;;;;;471797;252;27852;-80
2023/01/13 07:09:01;;;;;;;1.37;1.10;;;7.10;99.90;;;;;;471786;252;28396;-79
2023/01/13 07:11:02;;;;;;;2.80;1.30;;;7.10;99.90;;;;;;471818;252;29328;-79
2023/01/13 07:15:23;;;;;;;2.27;1.03;;;7.10;99.90;;;;;;471812;252;29238;-79
2023/01/13 07:17:25;;;;;;;0.90;0.90;;;7.10;99.90;;;;;;471777;252;28883;-78
2023/01/13 07:19:26;;;;;;;1.27;0.90;;;7.10;99.90;;;;;;471776;252;27447;-80
2023/01/13 07:21:27;;;;;;;3.33;1.30;;;7.10;99.90;;;;;;471780;252;27456;-78
2023/01/13 07:23:28;;;;;;;1.87;1.45;;;7.10;99.90;;;;;;471843;252;28081;-79
2023/01/13 07:25:31;;;;;;;1.90;1.63;;;7.10;99.90;;;;;;471840;252;27533;-79
2023/01/13 07:27:31;;;;;;;2.90;1.37;;;7.10;99.90;;;;;;471819;252;27960;-80
2023/01/13 07:29:32;;;;;;;3.78;2.70;;;7.10;99.90;;;;;;471745;252;28956;-80
2023/01/13 07:31:33;;;;;;;1.80;1.50;;;7.10;99.90;;;;;;471808;252;27981;-79
2023/01/13 07:33:35;;;;;;;4.27;1.80;;;7.10;99.90;;;;;;471903;252;28108;-80
2023/01/13 07:35:36;;;;;;;2.07;1.70;;;7.00;99.90;;;;;;471824;252;29130;-80
2023/01/13 07:37:38;;;;;;;3.08;1.75;;;7.00;99.90;;;;;;471847;252;28403;-80
2023/01/13 07:39:38;;;;;;;3.20;2.00;;;6.90;99.90;;;;;;471823;252;27486;-80
2023/01/13 07:44:03;;;;;;;5.73;1.60;;;7.00;99.90;;;;;;471952;252;27476;-81
2023/01/13 07:46:01;;;;;;;3.77;1.30;;;6.90;99.90;;;;;;471759;252;28789;-81
2023/01/13 07:48:02;;;;;;;2.50;1.30;;;7.00;99.90;;;;;;471970;252;27943;-79
2023/01/13 07:50:03;;;;;;;2.08;1.05;;;7.00;99.90;;;;;;471941;252;28486;-80
2023/01/13 07:52:04;;;;;;;3.62;1.25;;;7.00;99.90;;;;;;471870;252;27573;-81
2023/01/13 07:54:06;;;;;;;6.00;1.60;;;7.00;99.90;;;;;;471831;252;27456;-81
2023/01/13 07:56:08;;;;;;;4.00;1.43;;;7.00;99.90;;;;;;471886;252;28850;-81
2023/01/13 07:58:09;;;;;;;5.10;1.70;;;7.00;99.90;;;;;;472129;252;28374;-80
2023/01/13 08:00:11;;;;;;;3.12;1.55;;;7.00;99.90;;;;;;471839;252;28788;-80
2023/01/13 08:02:12;;;;;;;2.90;1.70;;;7.00;99.90;;;;;;471848;252;27930;-80
2023/01/13 08:04:13;;;;;;;7.80;1.90;;;7.00;99.90;;;;;;471828;252;29317;-81
2023/01/13 08:06:14;;;;;;;3.90;2.03;;;7.00;99.90;;;;;;471755;252;28312;-79
2023/01/13 08:08:16;;;;;;;7.03;1.62;;;7.00;99.90;;;;;;471805;252;29217;-81
2023/01/13 08:10:17;;;;;;;3.47;1.63;;;7.00;99.90;;;;;;471859;252;27405;-80
2023/01/13 08:14:22;;;;;;;7.30;1.53;;;7.00;99.90;;;;;;462302;252;27630;-80
2023/01/13 08:16:23;;;;;;;3.00;1.40;;;7.10;99.90;;;;;;471771;252;27930;-79
2023/01/13 08:18:25;;;;;;;6.90;1.80;;;7.10;99.90;;;;;;471835;252;28046;-80
2023/01/13 08:20:26;;;;;;;6.65;1.58;;;7.10;99.90;;;;;;471803;252;28441;-80
2023/01/13 08:22:29;;;;;;;3.03;1.67;;;7.10;99.90;;;;;;471777;252;28966;-79
2023/01/13 08:24:28;;;;;;;3.37;1.40;;;7.10;99.90;;;;;;471629;252;27464;-80
2023/01/13 08:26:30;;;;;;;3.40;1.30;;;7.10;99.90;;;;;;471821;252;27815;-79
2023/01/13 08:28:31;;;;;;;4.57;1.40;;;7.10;99.90;;;;;;471867;252;28262;-78
2023/01/13 08:30:32;;;;;;;3.53;1.30;;;7.10;99.90;;;;;;471815;252;27948;-79
2023/01/13 08:32:33;;;;;;;3.13;1.80;;;7.10;99.90;;;;;;471776;252;27950;-79
2023/01/13 08:34:35;;;;;;;4.33;1.80;;;7.20;99.90;;;;;;471799;252;28900;-79
2023/01/13 08:36:36;;;;;;;3.08;1.60;;;7.20;99.90;;;;;;471827;252;28824;-80
2023/01/13 08:38:37;;;;;;;6.50;1.80;;;7.20;99.90;;;;;;471877;252;27440;-78
2023/01/13 08:40:38;;;;;;;9.57;1.80;;;7.20;99.90;;;;;;471830;252;27921;-80
2023/01/13 08:42:40;;;;;;;3.70;1.37;;;7.30;99.90;;;;;;471790;252;28392;-77
2023/01/13 08:44:41;;;;;;;9.80;1.48;;;7.30;99.90;;;;;;471758;252;28462;-79
2023/01/13 08:46:42;;;;;;;4.80;1.70;;;7.40;99.90;;;;;;471837;252;28011;-80
2023/01/13 08:48:43;;;;;;;5.72;1.92;;;7.40;99.90;;;;;;471753;252;27996;-79
2023/01/13 08:50:45;;;;;;;7.93;2.20;;;7.40;99.90;;;;;;471759;252;27472;-80
2023/01/13 08:52:46;;;;;;;10.50;2.10;;;7.40;99.90;;;;;;471806;252;28607;-80
2023/01/13 08:54:47;;;;;;;8.10;2.07;;;7.40;99.90;;;;;;471824;252;28847;-79
2023/01/13 08:56:48;;;;;;;11.57;2.25;;;7.40;99.90;;;;;;471820;252;28865;-80
2023/01/13 08:58:50;;;;;;;4.10;1.83;;;7.40;99.90;;;;;;471868;252;27504;-79
2023/01/13 09:00:51;;;;;;;3.27;1.63;;;7.40;99.90;;;;;;471865;252;28033;-79
2023/01/13 09:02:52;;;;;;;3.63;1.70;;;7.50;99.90;;;;;;471851;252;28314;-79
2023/01/13 09:04:54;;;;;;;5.23;1.40;;;7.60;99.90;;;;;;471741;252;29387;-79
2023/01/13 09:06:55;;;;;;;4.20;1.97;;;7.60;99.90;;;;;;471833;252;28422;-80
2023/01/13 09:08:56;;;;;;;4.53;1.80;;;7.60;99.90;;;;;;471887;252;29461;-79
2023/01/13 09:10:57;;;;;;;8.93;1.73;;;7.50;99.90;;;;;;471848;252;27968;-80
2023/01/13 09:13:10;;;;;;;8.90;1.60;;;7.40;99.90;;;;;;471900;252;27988;-78
2023/01/13 09:15:12;;;;;;;7.67;1.60;;;7.40;99.90;;;;;;471918;252;27648;-75
2023/01/13 09:17:13;;;;;;;7.37;2.30;;;7.40;99.90;;;;;;471887;252;27708;-75
2023/01/13 09:19:14;;;;;;;7.43;1.87;;;7.50;99.90;;;;;;471849;252;27944;-78
2023/01/13 09:21:18;;;;;;;5.90;1.80;;;7.50;99.90;;;;;;471857;252;28016;-77
2023/01/13 09:23:17;;;;;;;6.83;1.97;;;7.50;99.90;;;;;;471722;252;28400;-79
2023/01/13 09:25:18;;;;;;;8.60;2.20;;;7.50;99.90;;;;;;471892;252;27718;-77
2023/01/13 09:27:19;;;;;;;4.73;1.60;;;7.50;99.90;;;;;;471872;252;27974;-80
2023/01/13 09:29:20;;;;;;;8.97;2.03;;;7.60;99.90;;;;;;471870;252;27861;-77
2023/01/13 09:31:22;;;;;;;7.23;1.80;;;7.60;99.90;;;;;;471880;252;27800;-77
2023/01/13 09:35:43;;;;;;;7.27;2.20;;;7.50;99.90;;;;;;471894;252;27781;-75
2023/01/13 09:37:44;;;;;;;6.87;2.57;;;7.40;99.90;;;;;;471788;252;27496;-76
2023/01/13 09:39:45;;;;;;;7.63;2.00;;;7.40;99.90;;;;;;471909;252;28282;-78
2023/01/13 09:44:06;;;;;;;4.37;1.80;;;7.50;99.90;;;;;;471881;252;28543;-76
2023/01/13 09:46:42;;;;;;;11.67;1.87;;;7.60;99.90;;;;;;471915;252;28392;-79
2023/01/13 09:48:08;;;;;;;7.60;2.60;;;7.60;99.90;;;;;;470423;252;27790;-78
2023/01/13 09:50:10;;;;;;;5.67;1.87;;;7.60;99.90;;;;;;471908;252;27875;-77
2023/01/13 09:52:11;;;;;;;5.43;2.70;;;7.60;99.90;;;;;;471876;252;27909;-76
2023/01/13 09:54:12;;;;;;;6.00;2.17;;;7.60;99.90;;;;;;471850;252;27983;-78
2023/01/13 09:56:13;;;;;;;4.70;2.00;;;7.60;99.90;;;;;;471891;252;28029;-77
2023/01/13 09:58:15;;;;;;;7.90;2.17;;;7.60;99.90;;;;;;471893;252;27906;-78
2023/01/13 10:00:16;;;;;;;6.73;2.10;;;7.70;99.90;;;;;;471884;252;27586;-79
2023/01/13 10:02:17;;;;;;;12.67;2.70;;;7.70;99.90;;;;;;471872;252;28024;-80
2023/01/13 10:04:18;;;;;;;6.83;2.50;;;7.70;99.90;;;;;;471845;252;28523;-77
2023/01/13 10:06:20;;;;;;;11.67;2.70;;;7.70;99.90;;;;;;471832;252;29127;-79
2023/01/13 10:08:21;;;;;;;6.93;2.03;;;7.70;99.90;;;;;;471855;252;28482;-79
2023/01/13 10:10:22;;;;;;;8.90;2.40;;;7.70;99.90;;;;;;471849;252;28525;-78
2023/01/13 10:14:43;;;;;;;7.90;2.03;;;7.80;99.90;;;;;;471880;247;27958;-77
2023/01/13 10:16:44;;;;;;;12.43;2.67;;;7.70;99.90;;;;;;471809;252;27720;-78
2023/01/13 10:18:46;;;;;;;9.40;2.77;;;7.70;99.90;;;;;;471832;252;28877;-78
2023/01/13 10:20:47;;;;;;;11.17;2.17;;;7.70;99.90;;;;;;471870;252;27616;-77
2023/01/13 10:22:48;;;;;;;7.23;1.93;;;7.70;99.90;;;;;;471855;252;28071;-79
2023/01/13 10:24:49;;;;;;;11.00;2.30;;;7.70;99.90;;;;;;471881;252;28357;-78
2023/01/13 10:26:51;;;;;;;8.17;2.40;;;7.70;99.90;;;;;;471860;252;28399;-79
2023/01/13 10:28:52;;;;;;;10.00;2.47;;;7.80;99.90;;;;;;471867;252;28974;-77
2023/01/13 10:30:53;;;;;;;10.63;2.80;;;7.80;99.90;;;;;;471883;252;27913;-76
2023/01/13 10:32:54;;;;;;;10.30;1.77;;;7.70;99.90;;;;;;471844;252;27901;-77
2023/01/13 10:34:56;;;;;;;8.30;2.07;;;7.70;99.90;;;;;;471834;252;27865;-79
2023/01/13 10:37:07;;;;;;;8.50;2.00;;;7.80;99.90;;;;;;471850;252;27900;-79
2023/01/13 10:38:58;;;;;;;12.67;2.43;;;7.80;99.90;;;;;;470846;252;27683;-76
2023/01/13 10:40:59;;;;;;;5.53;2.20;;;7.80;99.90;;;;;;471857;252;27872;-77
2023/01/13 10:43:01;;;;;;;12.23;2.40;;;7.80;99.90;;;;;;471882;252;28138;-78
2023/01/13 10:45:02;;;;;;;7.93;2.50;;;7.90;99.90;;;;;;471825;252;27545;-78
2023/01/13 10:47:03;;;;;;;13.17;2.80;;;7.90;99.90;;;;;;471841;252;28006;-76
2023/01/13 10:49:06;;;;;;;8.37;2.27;;;7.90;99.90;;;;;;471842;252;27941;-77
2023/01/13 10:51:07;;;;;;;5.90;2.10;;;7.90;99.90;;;;;;471877;252;27823;-77
2023/01/13 10:53:08;;;;;;;7.20;3.03;;;7.90;99.90;;;;;;471869;252;27901;-78
2023/01/13 10:55:10;;;;;;;8.90;2.40;;;7.80;99.90;;;;;;471842;252;28036;-78
2023/01/13 10:57:12;;;;;;;13.57;2.60;;;7.80;99.90;;;;;;471816;252;27946;-76
2023/01/13 10:59:13;;;;;;;6.30;2.17;;;7.80;99.90;;;;;;471905;252;28296;-78
2023/01/13 11:01:14;;;;;;;10.30;2.30;;;7.80;99.90;;;;;;471856;252;28500;-77
2023/01/13 11:03:15;;;;;;;13.70;2.60;;;7.70;99.90;;;;;;471881;252;27922;-78
2023/01/13 11:05:17;;;;;;;9.00;2.10;;;7.70;99.90;;;;;;471865;252;28370;-78
2023/01/13 11:07:18;;;;;;;5.83;2.60;;;7.80;99.90;;;;;;471840;252;28446;-78
2023/01/13 11:09:19;;;;;;;10.00;2.27;;;7.90;99.90;;;;;;471878;252;28432;-79
2023/01/13 11:11:20;;;;;;;11.67;2.60;;;8.00;99.90;;;;;;471893;252;28487;-78
2023/01/13 11:13:22;;;;;;;9.40;2.30;;;8.00;99.90;;;;;;471802;252;27576;-78
2023/01/13 11:15:23;;;;;;;11.47;2.43;;;8.10;99.90;;;;;;471842;252;28016;-76